Pagina principale
METAR-TAF:

METAR-TAF

Aeroporti :

Cannes, Francia

latitudine: 43-33N, longitudine: 006-57E, altezza: 3 m

Osservazione

Il bollettino è stato emesso 18 minuti fa, alle 02:30 UTC
Vento 4 kt da nord
Temperature 6°C
Umidità 100%
Pressione 1023 hPa
Visibilità 10 km o più
nessuna nube inferiore a 1500 m e nessun cumulonembo

METAR: LFMD 240230Z AUTO 36004KT CAVOK 06/06 Q1023 TEMPO BKN010

Ora: 03:48 (02:48 UTC)

Previsione

Il bollettino è stato emesso 48 minuti fa, alle 02:00 UTC
Previsione valida dal 24 alle 03 UTC al 25 alle 03 UTC
Vento 3 kt da direzioni variabili
Visibilità 10 km o più
Poco nuvoloso ad un'altezza di 1400 ft
Probabilità 40% :
Temporaneamente
dal 24 alle 03 UTC al 25 alle 03 UTC
Nuvoloso ad un'altezza di 1000 ft

TAF: LFMD 240200Z 2403/2503 VRB03KT 9999 FEW014 PROB40 TEMPO 2403/2503 BKN010

Osservazioni e previsioni meteorologiche di più di 4000 aeroporti (messaggi METAR e TAF).

Le stazioni disponibili sono rappresentate dai dischi gialli e rossi sulla carta.

Puntare il mouse per vedere il nome della stazione.

Clicca sopra per visualizzare le osservazioni e previsioni meteorologiche.

Per cambiare la mappa : fare clic sui pulsanti verdi con una croce nera per ingrandire, il pulsante verde con un trattino per diminuire, o sulla freccia verde per le mappe adiacenti.


METAR-TAF: